27 de septiembre de 2022

Hora Código Tiempo Temp. Visibilidad Cielo nuboso Viento METAR/SPECI
03:30
I
10 °C 10 km+ 700 ft 290° 290° 8 kt METAR LFLW 270130Z AUTO 29008KT 250V330 9999 BKN007 OVC012 10/10 Q1009
03:00
M
10 °C 10 km+ 1.300 ft 270° 270° 8 kt METAR LFLW 270100Z AUTO 27008KT 230V320 9999 SCT009 BKN013 BKN020 10/09 Q1009
02:30
M
10 °C 10 km+ 1.900 ft 270° 270° 7 kt METAR LFLW 270030Z AUTO 27007KT 230V300 9999 FEW008 SCT012 BKN019 10/09 Q1009
02:00
M
11 °C 10 km+ 1.000 ft 270° 270° 8 kt METAR LFLW 270000Z AUTO 27008KT 230V320 9999 BKN010 BKN014 BKN023 11/10 Q1009
01:30
I
11 °C 10 km+ 800 ft 260° 260° 8 kt METAR LFLW 262330Z AUTO 26008KT 9999 -DZ BKN008 BKN014 BKN021 11/10 Q1009
01:00
I
10 °C 8 km 800 ft 250° 250° 8 kt METAR LFLW 262300Z AUTO 25008KT 8000 -RADZ BKN008 OVC013 10/10 Q1009
00:30
I
10 °C 4,2 km 600 ft 250° 250° 6 kt METAR LFLW 262230Z AUTO 25006KT 4200 -RA BR OVC006 10/09 Q1010
00:00
I
10 °C 5 km 900 ft 240° 240° 6 kt METAR LFLW 262200Z AUTO 24006KT 180V270 5000 -RA BR OVC009/// ///TCU 10/09 Q1010

26 de septiembre de 2022

Hora Código Tiempo Temp. Visibilidad Cielo nuboso Viento METAR/SPECI
23:30
M
10 °C 10 km+ 2.700 ft 240° 240° 5 kt METAR LFLW 262130Z AUTO 24005KT 200V280 9999 -RA FEW014/// SCT020/// BKN027/// ///CB 10/09 Q1010
23:00
M
11 °C 10 km+ 2.400 ft 250° 250° 6 kt METAR LFLW 262100Z AUTO 25006KT 230V310 9999 -RA FEW017/// OVC024/// ///TCU 11/09 Q1011
22:30
M
11 °C 10 km+ 2.800 ft 250° 250° 8 kt METAR LFLW 262030Z AUTO 25008KT 220V290 9999 -RA FEW021/// BKN028/// OVC035/// ///TCU 11/08 Q1011
22:00
V
13 °C 10 km+ 3.800 ft 260° 260° 11 kt METAR LFLW 262000Z AUTO 26011KT 220V290 9999 FEW030/// BKN038/// BKN045/// ///TCU 13/07 Q1011
21:30
V
13 °C 10 km+ 7.800 ft 240° 240° 6 kt METAR LFLW 261930Z AUTO 24006KT 200V270 9999 FEW032 SCT068 BKN078 13/07 Q1011
21:00
V
13 °C 10 km+ 7.000 ft 240° 240° 5 kt METAR LFLW 261900Z AUTO 24005KT 9999 FEW040 OVC070 13/07 Q1011
20:30
V
13 °C 10 km+ 6.000 ft 250° 250° 5 kt METAR LFLW 261830Z AUTO 25005KT 210V280 9999 FEW038 SCT049 BKN060 13/07 Q1011
20:00
V
13 °C 10 km+ 6.400 ft 240° 240° 6 kt METAR LFLW 261800Z AUTO 24006KT 210V280 9999 FEW045 BKN064 OVC082 13/07 Q1011
19:30
V
13 °C 10 km+ 6.000 ft 260° 260° 7 kt METAR LFLW 261730Z AUTO 26007KT 230V300 9999 FEW037 SCT046 BKN060 13/07 Q1011
19:00
V
13 °C 10 km+ 4.200 ft 260° 260° 8 kt METAR LFLW 261700Z AUTO 26008KT 230V290 9999 SCT035 BKN042 BKN058 13/07 Q1011 TEMPO 4000 RA
18:30
V
14 °C 10 km+ 6.200 ft 270° 270° 8 kt METAR LFLW 261630Z AUTO 27008KT 9999 FEW034 BKN062 BKN110 14/07 Q1011 TEMPO 4000 RA
18:00
V
14 °C 10 km+ 4.600 ft 270° 270° 7 kt METAR LFLW 261600Z AUTO 27007KT 240V330 9999 SCT035 BKN046 BKN062 14/07 Q1012 NOSIG
17:30
V
14 °C 10 km+ 5.600 ft 280° 280° 8 kt METAR LFLW 261530Z AUTO 28008KT 240V330 9999 SCT037 SCT047 BKN056 14/06 Q1012 NOSIG
17:00
V
14 °C 10 km+ 3.600 ft 280° 280° 7 kt METAR LFLW 261500Z AUTO 28007KT 230V320 9999 BKN036 BKN043 OVC058 14/06 Q1012 NOSIG
16:30
V
14 °C 10 km+ 3.500 ft 260° 260° 9 kt METAR LFLW 261430Z AUTO 26009KT 230V310 9999 BKN035 BKN047 OVC058 14/07 Q1012 NOSIG
16:00
V
14 °C 10 km+ 5.600 ft 280° 280° 8 kt METAR LFLW 261400Z AUTO 28008KT 250V330 9999 FEW034 SCT049 BKN056 14/06 Q1012 NOSIG
15:30
V
14 °C 10 km+ 4.200 ft 280° 280° 9 kt METAR LFLW 261330Z AUTO 28009KT 240V320 9999 SCT031 BKN042 OVC052 14/06 Q1012 NOSIG
15:00
V
14 °C 10 km+ 5.600 ft 280° 280° 7 kt METAR LFLW 261300Z AUTO 28007KT 240V320 9999 FEW031 SCT044 BKN056 14/07 Q1013 NOSIG
14:30
V
14 °C 10 km+ 11.000 ft 270° 270° 8 kt METAR LFLW 261230Z AUTO 27008KT 230V320 9999 SCT056 OVC110 14/07 Q1013 NOSIG
14:00
M
13 °C 10 km+ 2.500 ft 290° 290° 6 kt METAR LFLW 261200Z AUTO 29006KT 250V350 9999 BKN025 OVC033 13/07 Q1013 NOSIG
13:30
V
13 °C 10 km+ 3.300 ft 300° 300° 7 kt METAR LFLW 261130Z AUTO 30007KT 250V360 9999 FEW026 BKN033 BKN043 13/07 Q1014 NOSIG
13:00
M
13 °C 10 km+ 2.100 ft 300° 300° 5 kt METAR LFLW 261100Z AUTO 30005KT 230V010 9999 BKN021 BKN032 BKN040 13/07 Q1014 NOSIG
12:30
M
12 °C 10 km+ 1.400 ft 290° 290° 6 kt METAR LFLW 261030Z AUTO 29006KT 240V330 9999 BKN014 BKN022 BKN030 12/08 Q1014 BECMG BKN018
12:00
M
11 °C 10 km+ 1.200 ft 280° 280° 4 kt METAR LFLW 261000Z AUTO 28004KT 240V330 9999 BKN012 BKN018 11/08 Q1014 BECMG BKN018
11:30
I
10 °C 10 km+ 900 ft Var Var 2 kt METAR LFLW 260930Z AUTO VRB02KT 9999 BKN009 OVC014 10/08 Q1014 BECMG BKN018
11:00
I
9 °C 10 km+ 500 ft Var Var 2 kt METAR LFLW 260900Z AUTO VRB02KT 9999 BKN005 OVC011 09/08 Q1014 BECMG BKN018
10:30
L
9 °C 10 km+ 400 ft 360° 360° 4 kt METAR LFLW 260830Z AUTO 36004KT 340V040 9999 OVC004 09/08 Q1014 BECMG BKN018
10:00
L
8 °C 4,2 km - Var Var 3 kt METAR LFLW 260800Z AUTO VRB03KT 4200 BR VV/// 08/08 Q1014 BECMG 9999 NSW BKN012
09:30
L
8 °C 1,2 km - 340° 340° 4 kt METAR LFLW 260730Z AUTO 34004KT 300V360 1400 1200 R15/1600U BR VV/// 08/08 Q1014 BECMG 9999 NSW BKN012
09:00
L
8 °C 1,2 km - Var Var 3 kt METAR LFLW 260700Z AUTO VRB03KT 1200 R15/1300D BR VV/// 08/08 Q1014 BECMG 9999 NSW BKN012
08:30
L
8 °C 1,3 km - 350° 350° 4 kt METAR LFLW 260630Z AUTO 35004KT 1500 1300 R15/2000U BR VV/// 08/08 Q1014 BECMG 9999 NSW BKN012
08:00
L
8 °C 4,8 km 200 ft 330° 330° 3 kt METAR LFLW 260600Z AUTO 33003KT 240V020 4800 BR OVC002 08/08 Q1014 TEMPO 0400 FG VV///
07:30
L
8 °C 5 km 200 ft 300° 300° 4 kt METAR LFLW 260530Z AUTO 30004KT 260V340 5000 BR OVC002 08/08 Q1014 TEMPO 0400 FG VV///
07:00
L
9 °C 8 km 300 ft 290° 290° 3 kt METAR LFLW 260500Z AUTO 29003KT 250V320 8000 OVC003 09/08 Q1014
06:30
L
9 °C 10 km+ 400 ft Var Var 3 kt METAR LFLW 260430Z AUTO VRB03KT 9999 OVC004 09/09 Q1014
06:00
I
9 °C 9 km 500 ft Var Var 2 kt METAR LFLW 260400Z AUTO VRB02KT 9000 OVC005 09/09 Q1014
05:30
L
9 °C 8 km 400 ft Var Var 2 kt METAR LFLW 260330Z AUTO VRB02KT 8000 OVC004 09/09 Q1014
05:00
L
9 °C 6 km 300 ft Var Var 2 kt METAR LFLW 260300Z AUTO VRB02KT 6000 OVC003 09/09 Q1014
04:30
L
9 °C 1 km - Var Var 2 kt METAR LFLW 260230Z AUTO VRB02KT 1000 R15/1200U BCFG VV/// 09/09 Q1015
04:00
L
9 °C 1,7 km - 320° 320° 3 kt METAR LFLW 260200Z AUTO 32003KT 270V360 1700 BR VV/// 09/09 Q1015
03:30
L
10 °C 1,7 km - 310° 310° 4 kt METAR LFLW 260130Z AUTO 31004KT 250V350 1700 BR VV/// 10/09 Q1015
03:00
L
10 °C 5 km - Var Var 1 kt METAR LFLW 260100Z AUTO VRB01KT 5000 BR VV/// 10/09 Q1015
02:30
L
9 °C 4,6 km - Var Var 1 kt METAR LFLW 260030Z AUTO VRB01KT 4600 BR VV/// 09/09 Q1015
02:00
L
10 °C 8 km 300 ft Var 000° 0 kt METAR LFLW 260000Z AUTO 00000KT 8000 BKN003 OVC064 10/09 Q1015
01:30
L
10 °C 7 km 300 ft Var 000° 0 kt METAR LFLW 252330Z AUTO 00000KT 7000 OVC003 10/10 Q1016
01:00
L
9 °C 7 km 200 ft Var Var 1 kt METAR LFLW 252300Z AUTO VRB01KT 7000 BKN002 OVC070 09/09 Q1016
00:30
M
10 °C 7 km 7.200 ft Var 000° 0 kt METAR LFLW 252230Z AUTO 00000KT 7000 FEW002 OVC072 10/09 Q1016
00:00
L
10 °C 10 km+ 200 ft Var 000° 0 kt METAR LFLW 252200Z AUTO 00000KT 9999 BKN002 OVC074 10/10 Q1016

25 de septiembre de 2022

Hora Código Tiempo Temp. Visibilidad Cielo nuboso Viento METAR/SPECI
23:30
L
10 °C 10 km+ - Var Var 2 kt METAR LFLW 252130Z AUTO VRB02KT 9999 VV/// 10/10 Q1016
23:00
L
9 °C 8 km - Var 000° 0 kt METAR LFLW 252100Z AUTO 00000KT 8000 VV/// 09/09 Q1016
22:30
L
10 °C 10 km+ 300 ft 270° 270° 3 kt METAR LFLW 252030Z AUTO 27003KT 9999 BKN003 BKN054 OVC074 10/09 Q1016
22:00
L
10 °C 10 km+ 300 ft Var Var 1 kt METAR LFLW 252000Z AUTO VRB01KT 9999 BKN003 BKN072 10/09 Q1016
21:30
V
10 °C 10 km+ - Var Var 2 kt METAR LFLW 251930Z AUTO VRB02KT CAVOK 10/10 Q1016
21:00
V
11 °C 10 km+ 7.800 ft 300° 300° 3 kt METAR LFLW 251900Z AUTO 30003KT 250V340 9999 FEW021 SCT048 BKN078 11/10 Q1016
20:30
V
11 °C 10 km+ - 310° 310° 3 kt METAR LFLW 251830Z AUTO 31003KT 270V340 CAVOK 11/10 Q1016
20:00
V
11 °C 10 km+ - 330° 330° 4 kt METAR LFLW 251800Z AUTO 33004KT 270V020 CAVOK 11/09 Q1015
19:30
V
12 °C 10 km+ 5.000 ft 310° 310° 4 kt METAR LFLW 251730Z AUTO 31004KT 250V350 9999 FEW036 BKN050 OVC074 12/10 Q1015
19:00
V
12 °C 10 km+ 3.400 ft Var Var 3 kt METAR LFLW 251700Z AUTO VRB03KT 9999 FEW010 BKN034 BKN058 12/10 Q1015 TEMPO SHRA
18:30
V
12 °C 10 km+ 3.000 ft Var Var 3 kt METAR LFLW 251630Z AUTO VRB03KT 9999 BKN030/// OVC074/// ///TCU 12/10 Q1015 TEMPO SHRA BECMG BKN030
18:00
V
12 °C 10 km+ - Var Var 2 kt METAR LFLW 251600Z AUTO VRB02KT 9999 ///TCU 12/09 Q1015 TEMPO SHRA BECMG BKN030
17:30
M
11 °C 5 km 4.100 ft 350° 350° 8 kt METAR LFLW 251530Z AUTO 35008KT 5000 RA BR SCT031/// BKN041/// BKN050/// ///CB 11/10 Q1015 BECMG BKN030
17:00
V
13 °C 10 km+ 3.400 ft 350° 350° 13 kt METAR LFLW 251500Z AUTO 35013KT 300V020 9999 BKN034/// BKN042/// OVC052/// ///CB 13/09 Q1015 TEMPO SHRA BECMG BKN030
16:30
V
15 °C 10 km+ 3.300 ft 340° 340° 5 kt METAR LFLW 251430Z AUTO 34005KT 300V360 9999 BKN033/// OVC040/// ///CB 15/08 Q1015 TEMPO SHRA BECMG BKN030
16:00
V
15 °C 10 km+ 3.000 ft 290° 290° 5 kt METAR LFLW 251400Z AUTO 29005KT 260V320 9999 OVC030/// ///CB 15/07 Q1015 TEMPO SHRA BECMG SCT030
15:30
M
15 °C 10 km+ 2.800 ft 280° 280° 6 kt METAR LFLW 251330Z AUTO 28006KT 250V320 9999 BKN028/// BKN037/// OVC064/// ///CB 15/08 Q1015 TEMPO SHRA BECMG SCT030
15:00
V
14 °C 10 km+ 7.000 ft 280° 280° 5 kt METAR LFLW 251300Z AUTO 28005KT 240V330 9999 FEW022/// OVC070/// ///TCU 14/09 Q1015 TEMPO SHRA BECMG SCT030
14:30
V
14 °C 10 km+ 6.400 ft 270° 270° 5 kt METAR LFLW 251230Z AUTO 27005KT 220V310 9999 FEW022 OVC064 14/09 Q1015 TEMPO SHRA
14:00
M
13 °C 10 km+ 2.200 ft 270° 270° 6 kt METAR LFLW 251200Z AUTO 27006KT 240V330 9999 -RA SCT017 BKN022 BKN030 13/09 Q1015 TEMPO SHRA
13:30
V
14 °C 10 km+ 6.400 ft 230° 230° 7 kt METAR LFLW 251130Z AUTO 23007KT 200V270 9999 FEW016 BKN064 14/10 Q1015 TEMPO SHRA
13:00
V
12 °C 10 km+ - 270° 270° 4 kt METAR LFLW 251100Z AUTO 27004KT 240V300 9999 FEW015 12/09 Q1016 TEMPO SHRA
12:30
M
13 °C 10 km+ 2.100 ft Var Var 3 kt METAR LFLW 251030Z AUTO VRB03KT 9999 SCT016 BKN021 BKN027 13/09 Q1016 TEMPO SHRA
12:00
M
12 °C 10 km+ 1.400 ft 280° 280° 4 kt METAR LFLW 251000Z AUTO 28004KT 210V340 9999 FEW010 BKN014 OVC024 12/09 Q1016 TEMPO SHRA BECMG BKN015
11:30
I
11 °C 10 km+ 900 ft 260° 260° 5 kt METAR LFLW 250930Z AUTO 26005KT 230V300 9999 BKN009 OVC020 11/10 Q1016 TEMPO SHRA BECMG BKN015
11:00
I
11 °C 10 km+ 800 ft 290° 290° 5 kt METAR LFLW 250900Z AUTO 29005KT 250V340 9999 OVC008 11/09 Q1015 TEMPO SHRA
10:30
L
11 °C 10 km+ 400 ft 280° 280° 5 kt METAR LFLW 250830Z AUTO 28005KT 240V330 9999 BKN004 OVC008 11/10 Q1015 BECMG BKN016
10:00
L
10 °C 10 km+ 400 ft 300° 300° 5 kt METAR LFLW 250800Z AUTO 30005KT 250V320 9999 BKN004/// OVC009/// ///TCU 10/10 Q1015 BECMG BKN016
09:30
L
10 °C 10 km+ 400 ft 300° 300° 3 kt METAR LFLW 250730Z AUTO 30003KT 260V350 9999 BKN004/// BKN010/// OVC014/// ///TCU 10/10 Q1015 BECMG BKN016
09:00
L
10 °C 10 km+ 400 ft Var Var 3 kt METAR LFLW 250700Z AUTO VRB03KT 9999 BKN004/// OVC014/// ///TCU 10/10 Q1015 TEMPO 3000 -RA BECMG OVC006
08:30
M
10 °C 10 km+ 1.500 ft Var Var 3 kt METAR LFLW 250630Z AUTO VRB03KT 9999 BKN015 OVC025 10/10 Q1015 TEMPO 3000 -RA BECMG OVC006
08:00
M
10 °C 10 km+ 1.400 ft Var Var 3 kt METAR LFLW 250600Z AUTO VRB03KT 9999 FEW007/// BKN014/// OVC024/// ///TCU 10/10 Q1014 TEMPO 3000 -RA OVC003
07:30
M
10 °C 10 km+ 1.700 ft 240° 240° 3 kt METAR LFLW 250530Z AUTO 24003KT 9999 FEW003/// SCT010/// BKN017/// ///TCU 10/10 Q1014 TEMPO 3000 -RA OVC003
07:00
L
10 °C 10 km+ 400 ft 220° 220° 3 kt METAR LFLW 250500Z AUTO 22003KT 190V250 9999 OVC004/// ///TCU 10/10 Q1014
06:30
I
10 °C 10 km+ 600 ft Var Var 2 kt METAR LFLW 250430Z AUTO VRB02KT 9999 -RADZ BKN006/// BKN010/// OVC048/// ///TCU 10/10 Q1014
06:00
M
10 °C 6 km 1.200 ft Var Var 2 kt METAR LFLW 250400Z AUTO VRB02KT 6000 -RA FEW002/// BKN012/// BKN030/// ///CB 10/10 Q1014
05:30
I
10 °C 3,6 km 1.800 ft Var Var 2 kt METAR LFLW 250330Z AUTO VRB02KT 3600 +RA BR BKN018/// BKN030/// BKN038/// ///CB 10/10 Q1014
05:00
M
10 °C 5 km 3.300 ft 080° 080° 3 kt METAR LFLW 250300Z AUTO 08003KT 5000 RA BR FEW027/// BKN033/// BKN042/// ///CB 10/10 Q1014
04:30
V
10 °C 10 km+ 4.400 ft Var Var 2 kt METAR LFLW 250230Z AUTO VRB02KT 9999 -RA FEW025/// SCT032/// BKN044/// ///TCU 10/10 Q1014
04:00
V
10 °C 10 km+ 4.900 ft Var Var 1 kt METAR LFLW 250200Z AUTO VRB01KT 9999 -RA FEW032/// BKN049/// OVC056/// ///TCU 10/09 Q1014
03:30
V
10 °C 8 km 5.000 ft 140° 140° 3 kt METAR LFLW 250130Z AUTO 14003KT 8000 FEW001 SCT030 OVC050 10/09 Q1014
03:00
M
9 °C 7 km 2.700 ft 190° 190° 2 kt METAR LFLW 250100Z AUTO 19002KT 7000 SCT013 OVC027 09/09 Q1015
02:30
L
9 °C 1 km 1.400 ft Var 000° 0 kt METAR LFLW 250030Z AUTO 00000KT 7000 1000 R15/P2000 BKN014 OVC033 09/09 Q1015
02:00
M
10 °C 10 km+ 2.300 ft 080° 080° 2 kt METAR LFLW 250000Z AUTO 08002KT 9999 FEW017 BKN023 BKN058 10/10 Q1014
01:30
M
10 °C 10 km+ 1.800 ft 160° 160° 1 kt METAR LFLW 242330Z AUTO 16001KT 9999 BKN018/// OVC060/// ///TCU 10/10 Q1015
01:00
M
10 °C 10 km+ 1.800 ft Var Var 1 kt METAR LFLW 242300Z AUTO VRB01KT 9999 FEW007/// BKN018/// BKN028/// ///TCU 10/10 Q1015
00:30
V
11 °C 10 km+ 3.200 ft Var Var 2 kt METAR LFLW 242230Z AUTO VRB02KT 9999 SCT018/// BKN032/// BKN039/// ///CB 11/10 Q1015
00:00
V
11 °C 10 km+ - Var 000° 0 kt METAR LFLW 242200Z AUTO 00000KT 9999 -RA ///CB 11/10 Q1015

24 de septiembre de 2022

Hora Código Tiempo Temp. Visibilidad Cielo nuboso Viento METAR/SPECI
23:30
V
11 °C 10 km+ - Var Var 1 kt METAR LFLW 242130Z AUTO VRB01KT 9999 ///CB 11/10 Q1015
23:00
V
11 °C 10 km+ 5.600 ft Var Var 3 kt METAR LFLW 242100Z AUTO VRB03KT 9999 FEW047/// OVC056/// ///CB 11/10 Q1015
22:30
M
11 °C 6 km 5.000 ft Var 000° 0 kt METAR LFLW 242030Z AUTO 00000KT 6000 RA FEW025/// BKN050/// OVC060/// ///CB 11/10 Q1015
22:00
V
11 °C 10 km+ 4.700 ft Var Var 2 kt METAR LFLW 242000Z AUTO VRB02KT 9999 FEW031/// BKN047/// BKN054/// ///CB 11/10 Q1015
21:30
V
11 °C 10 km+ 6.400 ft Var Var 2 kt METAR LFLW 241930Z AUTO VRB02KT 9999 -RA SCT042/// SCT052/// OVC064/// ///CB 11/10 Q1015
21:00
M
11 °C 10 km+ 2.300 ft 020° 020° 5 kt METAR LFLW 241900Z AUTO 02005KT 9999 BKN023/// BKN029/// BKN035/// ///CB 11/10 Q1014
20:30
V
11 °C 10 km+ 4.200 ft 030° 030° 6 kt METAR LFLW 241830Z AUTO 03006KT 320V060 9999 FEW011/// SCT018/// BKN042/// ///CB 11/11 Q1015
20:00
V
12 °C 10 km+ 6.200 ft Var Var 2 kt METAR LFLW 241800Z AUTO VRB02KT 9999 -RA FEW050/// BKN062/// OVC074/// ///CB 12/11 Q1014
19:30
V
12 °C 10 km+ 7.800 ft Var 000° 0 kt METAR LFLW 241730Z AUTO 00000KT 9999 -RA FEW026/// SCT064/// OVC078/// ///CB 12/11 Q1014
19:00
V
12 °C 10 km+ 5.800 ft Var Var 3 kt METAR LFLW 241700Z AUTO VRB03KT 9999 -RA FEW018/// SCT044/// OVC058/// ///CB 12/10 Q1014 TEMPO 4000 SHRA
Datos más antiguos

Nosotros y terceros seguimos tu comportamiento en Internet en nuestro sitio web con cookies. Si continúas, asumimos que estás de acuerdo con nuestra política de cookies. Más información